createdAt,value
2024-03-26T00:00:10.324Z,975.92
2024-03-26T00:00:34.672Z,976.02
2024-03-26T00:00:55.722Z,976.02
2024-03-26T00:01:27.237Z,976.02
2024-03-26T00:01:59.244Z,975.82
2024-03-26T00:02:31.250Z,975.82
2024-03-26T00:03:03.302Z,975.82
2024-03-26T00:03:36.170Z,975.82
2024-03-26T00:04:07.231Z,975.82
2024-03-26T00:04:34.545Z,975.82
2024-03-26T00:04:55.283Z,975.82
2024-03-26T00:05:27.543Z,975.82
2024-03-26T00:05:59.890Z,975.82
2024-03-26T00:06:31.909Z,975.82
2024-03-26T00:07:03.350Z,975.92
2024-03-26T00:07:35.291Z,975.92
2024-03-26T00:08:07.273Z,975.72
2024-03-26T00:08:34.563Z,975.92
2024-03-26T00:08:55.274Z,975.92
2024-03-26T00:09:27.242Z,975.92
2024-03-26T00:09:59.847Z,975.62
2024-03-26T00:10:31.807Z,975.62
2024-03-26T00:11:03.293Z,975.82
2024-03-26T00:11:35.277Z,975.82
2024-03-26T00:12:07.410Z,975.52
2024-03-26T00:12:34.566Z,975.82
2024-03-26T00:12:55.629Z,975.82
2024-03-26T00:13:27.274Z,975.82
2024-03-26T00:13:59.278Z,975.72
2024-03-26T00:14:31.594Z,975.72
2024-03-26T00:15:03.886Z,975.82
2024-03-26T00:15:35.381Z,975.82
2024-03-26T00:16:07.473Z,975.72
2024-03-26T00:16:34.922Z,975.82
2024-03-26T00:16:55.451Z,975.82
2024-03-26T00:17:27.240Z,975.82
2024-03-26T00:17:59.243Z,975.62
2024-03-26T00:18:31.667Z,975.62
2024-03-26T00:19:03.291Z,975.72
2024-03-26T00:19:36.003Z,975.72
2024-03-26T00:20:08.516Z,975.72
2024-03-26T00:20:34.568Z,975.52
2024-03-26T00:20:55.536Z,975.52
2024-03-26T00:21:27.269Z,975.52
2024-03-26T00:21:59.248Z,975.82
2024-03-26T00:22:31.883Z,975.82
2024-03-26T00:23:03.336Z,975.72
2024-03-26T00:23:35.523Z,975.72
2024-03-26T00:24:07.712Z,975.52
2024-03-26T00:24:34.655Z,975.72
2024-03-26T00:24:55.395Z,975.72
2024-03-26T00:25:27.536Z,975.72
2024-03-26T00:26:00.246Z,975.41
2024-03-26T00:26:31.809Z,975.41
2024-03-26T00:27:03.351Z,975.52
2024-03-26T00:27:35.257Z,975.52
2024-03-26T00:28:07.363Z,975.41
2024-03-26T00:28:34.517Z,975.62
2024-03-26T00:28:55.607Z,975.62
2024-03-26T00:29:27.307Z,975.62
2024-03-26T00:29:59.324Z,975.41
2024-03-26T00:30:32.772Z,975.41
2024-03-26T00:31:03.309Z,975.31
2024-03-26T00:31:35.434Z,975.31
2024-03-26T00:32:07.340Z,975.41
2024-03-26T00:32:34.544Z,975.62
2024-03-26T00:32:55.485Z,975.62
2024-03-26T00:33:27.242Z,975.62
2024-03-26T00:33:59.264Z,975.62
2024-03-26T00:34:31.258Z,975.62
2024-03-26T00:35:03.588Z,975.41
2024-03-26T00:35:35.985Z,975.41
2024-03-26T00:36:07.429Z,975.41
2024-03-26T00:36:34.543Z,975.62
2024-03-26T00:36:55.411Z,975.62
2024-03-26T00:37:27.254Z,975.62
2024-03-26T00:37:59.293Z,975.41
2024-03-26T00:38:32.023Z,975.41
2024-03-26T00:39:03.322Z,975.41
2024-03-26T00:39:35.286Z,975.41
2024-03-26T00:40:07.574Z,975.52
2024-03-26T00:40:34.666Z,975.31
2024-03-26T00:40:55.506Z,975.31
2024-03-26T00:41:27.234Z,975.31
2024-03-26T00:42:00.072Z,975.21
2024-03-26T00:42:36.593Z,975.21
2024-03-26T00:43:03.263Z,975.41
2024-03-26T00:43:35.268Z,975.41
2024-03-26T00:44:07.266Z,975.31
2024-03-26T00:44:36.195Z,975.11
2024-03-26T00:44:55.603Z,975.11
2024-03-26T00:45:27.752Z,975.11
2024-03-26T00:45:59.315Z,975.31
2024-03-26T00:46:31.300Z,975.31
2024-03-26T00:47:03.314Z,975.21
2024-03-26T00:47:35.599Z,975.21
2024-03-26T00:48:07.836Z,975.21
2024-03-26T00:48:34.537Z,975.01
2024-03-26T00:48:55.492Z,975.01
2024-03-26T00:49:27.240Z,975.01
2024-03-26T00:49:59.260Z,975.21
2024-03-26T00:50:32.303Z,975.21
2024-03-26T00:51:03.410Z,975.01
2024-03-26T00:51:36.246Z,975.01
2024-03-26T00:52:07.221Z,975.11
2024-03-26T00:52:34.825Z,975.01
2024-03-26T00:52:55.486Z,975.01
2024-03-26T00:53:27.264Z,975.01
2024-03-26T00:53:59.276Z,975.21
2024-03-26T00:54:31.727Z,975.21
2024-03-26T00:55:03.559Z,974.94
2024-03-26T00:55:35.307Z,974.94
2024-03-26T00:56:07.243Z,975.11
2024-03-26T00:56:34.531Z,974.94
2024-03-26T00:56:55.572Z,974.94
2024-03-26T00:57:27.360Z,974.94
2024-03-26T00:58:00.423Z,974.94
2024-03-26T00:58:31.226Z,974.94
2024-03-26T00:59:03.277Z,974.84
2024-03-26T00:59:35.357Z,974.84
2024-03-26T01:00:08.396Z,975.01
2024-03-26T01:00:34.581Z,974.94
2024-03-26T01:00:55.694Z,974.94
2024-03-26T01:01:27.288Z,974.94
2024-03-26T01:01:59.368Z,974.94
2024-03-26T01:02:31.236Z,974.94
2024-03-26T01:03:03.298Z,974.84
2024-03-26T01:03:35.390Z,974.84
2024-03-26T01:04:07.269Z,974.94
2024-03-26T01:04:34.923Z,974.94
2024-03-26T01:04:55.231Z,974.94
2024-03-26T01:05:27.537Z,974.94
2024-03-26T01:05:59.298Z,975.01
2024-03-26T01:06:32.058Z,975.01
2024-03-26T01:07:03.294Z,975.01
2024-03-26T01:07:36.275Z,975.01
2024-03-26T01:08:07.248Z,974.94
2024-03-26T01:08:34.561Z,975.01
2024-03-26T01:08:55.284Z,975.01
2024-03-26T01:09:27.278Z,975.01
2024-03-26T01:09:59.302Z,974.94
2024-03-26T01:10:31.815Z,974.94
2024-03-26T01:11:03.287Z,975.11
2024-03-26T01:11:35.320Z,975.11
2024-03-26T01:12:07.460Z,974.94
2024-03-26T01:12:34.540Z,974.84
2024-03-26T01:12:55.399Z,974.84
2024-03-26T01:13:28.142Z,974.84
2024-03-26T01:13:59.278Z,974.94
2024-03-26T01:14:31.268Z,974.94
2024-03-26T01:15:03.782Z,975.11
2024-03-26T01:15:35.313Z,975.11
2024-03-26T01:16:07.829Z,975.01
2024-03-26T01:16:35.258Z,974.94
2024-03-26T01:16:56.005Z,974.94
2024-03-26T01:17:27.272Z,974.94
2024-03-26T01:17:59.332Z,974.94
2024-03-26T01:18:31.648Z,974.94
2024-03-26T01:19:03.330Z,975.01
2024-03-26T01:19:35.260Z,975.01
2024-03-26T01:20:08.383Z,974.84
2024-03-26T01:20:34.516Z,975.01
2024-03-26T01:20:55.588Z,975.01
2024-03-26T01:21:27.474Z,975.01
2024-03-26T01:21:59.254Z,974.94
2024-03-26T01:22:31.285Z,974.94
2024-03-26T01:23:03.314Z,974.94
2024-03-26T01:23:35.386Z,974.94
2024-03-26T01:24:07.729Z,974.94
2024-03-26T01:24:34.577Z,974.84
2024-03-26T01:24:55.388Z,974.84
2024-03-26T01:25:27.585Z,974.84
2024-03-26T01:26:00.224Z,974.94
2024-03-26T01:26:32.267Z,974.94
2024-03-26T01:27:03.342Z,975.01
2024-03-26T01:27:35.333Z,975.01
2024-03-26T01:28:07.255Z,974.84
2024-03-26T01:28:34.639Z,974.74
2024-03-26T01:28:55.626Z,974.74
2024-03-26T01:29:27.265Z,974.74
2024-03-26T01:29:59.275Z,974.84
2024-03-26T01:30:32.406Z,974.84
2024-03-26T01:31:03.300Z,974.84
2024-03-26T01:31:35.466Z,974.84
2024-03-26T01:32:07.736Z,974.84
2024-03-26T01:32:34.530Z,974.84
2024-03-26T01:32:56.051Z,974.84
2024-03-26T01:33:27.289Z,974.84
2024-03-26T01:33:59.282Z,974.94
2024-03-26T01:34:31.245Z,974.94
2024-03-26T01:35:03.580Z,975.01
2024-03-26T01:35:35.311Z,975.01
2024-03-26T01:36:08.622Z,974.94
2024-03-26T01:36:34.734Z,974.84
2024-03-26T01:36:55.588Z,974.84
2024-03-26T01:37:27.273Z,974.84
2024-03-26T01:37:59.277Z,974.74
2024-03-26T01:38:31.629Z,974.74
2024-03-26T01:39:03.321Z,974.84
2024-03-26T01:39:36.650Z,974.84
2024-03-26T01:40:07.554Z,974.74
2024-03-26T01:40:35.650Z,974.74
2024-03-26T01:40:57.943Z,974.74
2024-03-26T01:41:27.770Z,974.74
2024-03-26T01:41:59.507Z,974.63
2024-03-26T01:42:32.890Z,974.63
2024-03-26T01:43:03.355Z,974.84
2024-03-26T01:43:35.597Z,974.84
2024-03-26T01:44:08.078Z,974.74
2024-03-26T01:44:34.671Z,974.53
2024-03-26T01:44:55.721Z,974.53
2024-03-26T01:45:28.102Z,974.53
2024-03-26T01:45:59.459Z,974.53
2024-03-26T01:46:31.518Z,974.53
2024-03-26T01:47:03.521Z,974.84
2024-03-26T01:47:35.836Z,974.84
2024-03-26T01:48:07.988Z,974.74
2024-03-26T01:48:34.646Z,974.74
2024-03-26T01:48:56.349Z,974.74
2024-03-26T01:49:27.497Z,974.74
2024-03-26T01:49:59.835Z,974.74
2024-03-26T01:50:32.397Z,974.74
2024-03-26T01:51:03.713Z,974.53
2024-03-26T01:51:35.395Z,974.53
2024-03-26T01:52:08.272Z,974.63
2024-03-26T01:52:34.786Z,974.33
2024-03-26T01:52:56.326Z,974.33
2024-03-26T01:53:27.269Z,974.33
2024-03-26T01:53:59.351Z,974.63
2024-03-26T01:54:31.989Z,974.63
2024-03-26T01:55:03.673Z,974.63
2024-03-26T01:55:35.416Z,974.63
2024-03-26T01:56:07.345Z,974.53
2024-03-26T01:56:35.214Z,974.23
2024-03-26T01:56:55.716Z,974.23
2024-03-26T01:57:27.470Z,974.23
2024-03-26T01:57:59.375Z,974.43
2024-03-26T01:58:32.279Z,974.43
2024-03-26T01:59:03.395Z,974.43
2024-03-26T01:59:35.398Z,974.43
2024-03-26T02:00:08.608Z,974.33
2024-03-26T02:00:34.736Z,974.53
2024-03-26T02:00:55.979Z,974.53
2024-03-26T02:01:27.358Z,974.53
2024-03-26T02:01:59.410Z,974.33
2024-03-26T02:02:31.375Z,974.33
2024-03-26T02:03:03.409Z,974.33
2024-03-26T02:03:35.582Z,974.33
2024-03-26T02:04:07.556Z,974.43
2024-03-26T02:04:35.034Z,974.33
2024-03-26T02:04:56.555Z,974.33
2024-03-26T02:05:27.862Z,974.33
2024-03-26T02:05:59.432Z,974.23
2024-03-26T02:06:32.037Z,974.23
2024-03-26T02:07:03.425Z,974.23
2024-03-26T02:07:35.325Z,974.23
2024-03-26T02:08:08.333Z,974.33
2024-03-26T02:08:34.827Z,974.13
2024-03-26T02:08:55.286Z,974.13
2024-03-26T02:09:27.275Z,974.13
2024-03-26T02:09:59.282Z,974.13
2024-03-26T02:10:31.903Z,974.13
2024-03-26T02:11:03.302Z,974.13
2024-03-26T02:11:35.291Z,974.13
2024-03-26T02:12:08.288Z,974.23
2024-03-26T02:12:34.968Z,974.33
2024-03-26T02:12:55.414Z,974.33
2024-03-26T02:13:27.306Z,974.33
2024-03-26T02:13:59.292Z,974.13
2024-03-26T02:14:31.302Z,974.13
2024-03-26T02:15:04.039Z,974.13
2024-03-26T02:15:35.345Z,974.13
2024-03-26T02:16:07.489Z,974.13
2024-03-26T02:16:34.667Z,974.23
2024-03-26T02:16:56.047Z,974.23
2024-03-26T02:17:27.291Z,974.23
2024-03-26T02:17:59.305Z,974.03
2024-03-26T02:18:31.445Z,974.03
2024-03-26T02:19:03.323Z,973.92
2024-03-26T02:19:35.285Z,973.92
2024-03-26T02:20:08.341Z,973.92
2024-03-26T02:20:35.018Z,974.03
2024-03-26T02:20:55.944Z,974.03
2024-03-26T02:21:27.277Z,974.03
2024-03-26T02:21:59.322Z,973.92
2024-03-26T02:22:31.509Z,973.92
2024-03-26T02:23:03.335Z,973.82
2024-03-26T02:23:35.312Z,973.82
2024-03-26T02:24:07.468Z,973.92
2024-03-26T02:24:34.747Z,973.82
2024-03-26T02:24:55.376Z,973.82
2024-03-26T02:25:27.556Z,973.82
2024-03-26T02:25:59.312Z,973.92
2024-03-26T02:26:32.271Z,973.92
2024-03-26T02:27:03.287Z,973.72
2024-03-26T02:27:35.367Z,973.72
2024-03-26T02:28:07.266Z,973.82
2024-03-26T02:28:34.530Z,973.82
2024-03-26T02:28:55.310Z,973.82
2024-03-26T02:29:27.298Z,973.82
2024-03-26T02:29:59.274Z,973.72
2024-03-26T02:30:32.235Z,973.72
2024-03-26T02:31:03.342Z,973.82
2024-03-26T02:31:35.607Z,973.82
2024-03-26T02:32:07.274Z,973.62
2024-03-26T02:32:34.536Z,973.52
2024-03-26T02:32:55.991Z,973.52
2024-03-26T02:33:27.280Z,973.52
2024-03-26T02:33:59.284Z,973.62
2024-03-26T02:34:31.269Z,973.62
2024-03-26T02:35:03.624Z,973.82
2024-03-26T02:35:35.285Z,973.82
2024-03-26T02:36:08.031Z,973.72
2024-03-26T02:36:34.618Z,973.62
2024-03-26T02:36:55.486Z,973.62
2024-03-26T02:37:27.297Z,973.62
2024-03-26T02:37:59.318Z,973.82
2024-03-26T02:38:31.381Z,973.82
2024-03-26T02:39:03.334Z,973.52
2024-03-26T02:39:35.483Z,973.52
2024-03-26T02:40:07.629Z,973.62
2024-03-26T02:40:34.515Z,973.62
2024-03-26T02:40:55.873Z,973.62
2024-03-26T02:41:27.322Z,973.62
2024-03-26T02:41:59.583Z,973.42
2024-03-26T02:42:32.590Z,973.42
2024-03-26T02:43:03.445Z,973.62
2024-03-26T02:43:35.256Z,973.62
2024-03-26T02:44:07.252Z,973.52
2024-03-26T02:44:34.512Z,973.42
2024-03-26T02:44:55.336Z,973.42
2024-03-26T02:45:27.767Z,973.42
2024-03-26T02:45:59.312Z,973.52
2024-03-26T02:46:31.392Z,973.52
2024-03-26T02:47:03.329Z,973.62
2024-03-26T02:47:35.539Z,973.62
2024-03-26T02:48:07.516Z,973.62
2024-03-26T02:48:34.514Z,973.52
2024-03-26T02:49:00.914Z,973.52
2024-03-26T02:49:27.276Z,973.52
2024-03-26T02:49:59.241Z,973.62
2024-03-26T02:50:32.086Z,973.62
2024-03-26T02:51:03.356Z,973.52
2024-03-26T02:51:35.280Z,973.52
2024-03-26T02:52:07.997Z,973.82
2024-03-26T02:52:34.597Z,973.62
2024-03-26T02:52:55.625Z,973.62
2024-03-26T02:53:27.264Z,973.62
2024-03-26T02:53:59.307Z,973.52
2024-03-26T02:54:31.479Z,973.52
2024-03-26T02:55:03.588Z,973.72
2024-03-26T02:55:35.455Z,973.72
2024-03-26T02:56:07.281Z,973.72
2024-03-26T02:56:34.620Z,973.82
2024-03-26T02:56:55.272Z,973.82
2024-03-26T02:57:27.310Z,973.82
2024-03-26T02:57:59.288Z,973.62
2024-03-26T02:58:32.387Z,973.62
2024-03-26T02:59:03.316Z,973.52
2024-03-26T02:59:35.282Z,973.52
2024-03-26T03:00:08.173Z,973.52
2024-03-26T03:00:34.554Z,973.62
2024-03-26T03:00:55.712Z,973.62
2024-03-26T03:01:27.329Z,973.62
2024-03-26T03:01:59.287Z,973.52
2024-03-26T03:02:31.330Z,973.52
2024-03-26T03:03:03.365Z,973.52
2024-03-26T03:03:35.283Z,973.52
2024-03-26T03:04:07.279Z,973.52
2024-03-26T03:04:34.907Z,973.42
2024-03-26T03:04:56.019Z,973.42
2024-03-26T03:05:27.596Z,973.42
2024-03-26T03:05:59.266Z,973.52
2024-03-26T03:06:31.448Z,973.52
2024-03-26T03:07:03.410Z,973.72
2024-03-26T03:07:35.262Z,973.72
2024-03-26T03:08:08.250Z,973.42
2024-03-26T03:08:34.506Z,973.72
2024-03-26T03:08:55.341Z,973.72
2024-03-26T03:09:27.293Z,973.72
2024-03-26T03:09:59.312Z,973.72
2024-03-26T03:10:31.564Z,973.72
2024-03-26T03:11:03.346Z,973.82
2024-03-26T03:11:35.327Z,973.82
2024-03-26T03:12:08.621Z,973.52
2024-03-26T03:12:34.485Z,973.62
2024-03-26T03:12:55.402Z,973.62
2024-03-26T03:13:27.258Z,973.62
2024-03-26T03:13:59.322Z,973.62
2024-03-26T03:14:32.397Z,973.62
2024-03-26T03:15:03.800Z,973.82
2024-03-26T03:15:35.295Z,973.82
2024-03-26T03:16:07.465Z,973.52
2024-03-26T03:16:34.593Z,973.62
2024-03-26T03:16:55.316Z,973.62
2024-03-26T03:17:27.299Z,973.62
2024-03-26T03:17:59.286Z,973.72
2024-03-26T03:18:31.508Z,973.72
2024-03-26T03:19:03.354Z,973.62
2024-03-26T03:19:35.496Z,973.62
2024-03-26T03:20:07.691Z,973.52
2024-03-26T03:20:34.744Z,973.72
2024-03-26T03:20:56.246Z,973.72
2024-03-26T03:21:27.277Z,973.72
2024-03-26T03:21:59.252Z,973.52
2024-03-26T03:22:31.294Z,973.52
2024-03-26T03:23:03.347Z,973.62
2024-03-26T03:23:35.573Z,973.62
2024-03-26T03:24:08.264Z,973.82
2024-03-26T03:24:34.499Z,973.72
2024-03-26T03:24:55.437Z,973.72
2024-03-26T03:25:27.557Z,973.72
2024-03-26T03:25:59.306Z,973.62
2024-03-26T03:26:31.347Z,973.62
2024-03-26T03:27:03.363Z,973.72
2024-03-26T03:27:35.286Z,973.72
2024-03-26T03:28:07.313Z,973.72
2024-03-26T03:28:34.502Z,973.72
2024-03-26T03:28:55.278Z,973.72
2024-03-26T03:29:27.283Z,973.72
2024-03-26T03:29:59.276Z,973.62
2024-03-26T03:30:33.775Z,973.62
2024-03-26T03:31:03.303Z,973.42
2024-03-26T03:31:35.269Z,973.42
2024-03-26T03:32:07.296Z,973.52
2024-03-26T03:32:34.502Z,973.72
2024-03-26T03:32:55.343Z,973.72
2024-03-26T03:33:27.450Z,973.72
2024-03-26T03:33:59.587Z,973.52
2024-03-26T03:34:31.421Z,973.52
2024-03-26T03:35:03.643Z,973.52
2024-03-26T03:35:35.379Z,973.52
2024-03-26T03:36:07.466Z,973.62
2024-03-26T03:36:34.502Z,973.42
2024-03-26T03:36:56.458Z,973.42
2024-03-26T03:37:27.272Z,973.42
2024-03-26T03:37:59.277Z,973.62
2024-03-26T03:38:31.330Z,973.62
2024-03-26T03:39:03.388Z,973.31
2024-03-26T03:39:35.279Z,973.31
2024-03-26T03:40:08.329Z,973.31
2024-03-26T03:40:34.691Z,973.52
2024-03-26T03:40:56.035Z,973.52
2024-03-26T03:41:27.298Z,973.52
2024-03-26T03:41:59.302Z,973.52
2024-03-26T03:42:31.428Z,973.52
2024-03-26T03:43:03.323Z,973.52
2024-03-26T03:43:35.356Z,973.52
2024-03-26T03:44:07.308Z,973.42
2024-03-26T03:44:34.563Z,973.52
2024-03-26T03:44:55.285Z,973.52
2024-03-26T03:45:27.753Z,973.52
2024-03-26T03:45:59.324Z,973.62
2024-03-26T03:46:32.294Z,973.62
2024-03-26T03:47:03.292Z,973.42
2024-03-26T03:47:35.296Z,973.42
2024-03-26T03:48:07.467Z,973.31
2024-03-26T03:48:34.827Z,973.42
2024-03-26T03:48:55.425Z,973.42
2024-03-26T03:49:27.377Z,973.42
2024-03-26T03:49:59.374Z,973.21
2024-03-26T03:50:31.552Z,973.21
2024-03-26T03:51:03.329Z,973.21
2024-03-26T03:51:35.622Z,973.21
2024-03-26T03:52:07.298Z,973.31
2024-03-26T03:52:34.500Z,973.52
2024-03-26T03:52:56.194Z,973.52
2024-03-26T03:53:27.280Z,973.52
2024-03-26T03:53:59.263Z,973.21
2024-03-26T03:54:31.453Z,973.21
2024-03-26T03:55:03.624Z,973.52
2024-03-26T03:55:35.284Z,973.52
2024-03-26T03:56:07.885Z,973.42
2024-03-26T03:56:34.498Z,973.52
2024-03-26T03:56:55.306Z,973.52
2024-03-26T03:57:27.281Z,973.52
2024-03-26T03:57:59.293Z,973.52
2024-03-26T03:58:31.400Z,973.52
2024-03-26T03:59:03.351Z,973.42
2024-03-26T03:59:35.299Z,973.42
2024-03-26T04:00:13.674Z,973.62
2024-03-26T04:00:34.542Z,973.52
2024-03-26T04:00:55.673Z,973.52
2024-03-26T04:01:27.275Z,973.52
2024-03-26T04:01:59.325Z,973.42
2024-03-26T04:02:32.418Z,973.42
2024-03-26T04:03:03.316Z,973.31
2024-03-26T04:03:35.316Z,973.31
2024-03-26T04:04:07.269Z,973.21
2024-03-26T04:04:35.204Z,973.42
2024-03-26T04:04:55.339Z,973.42
2024-03-26T04:05:27.582Z,973.42
2024-03-26T04:05:59.288Z,973.21
2024-03-26T04:06:31.535Z,973.21
2024-03-26T04:07:03.346Z,973.21
2024-03-26T04:07:35.320Z,973.21
2024-03-26T04:08:07.268Z,973.21
2024-03-26T04:08:34.498Z,973.21
2024-03-26T04:08:56.000Z,973.21
2024-03-26T04:09:27.388Z,973.21
2024-03-26T04:09:59.262Z,973.42
2024-03-26T04:10:31.563Z,973.42
2024-03-26T04:11:03.350Z,973.42
2024-03-26T04:11:35.333Z,973.42
2024-03-26T04:12:09.792Z,973.42
2024-03-26T04:12:35.217Z,973.42
2024-03-26T04:12:55.434Z,973.42
2024-03-26T04:13:27.313Z,973.42
2024-03-26T04:13:59.297Z,973.42
2024-03-26T04:14:31.313Z,973.42
2024-03-26T04:15:03.891Z,973.31
2024-03-26T04:15:35.616Z,973.31
2024-03-26T04:16:07.536Z,973.42
2024-03-26T04:16:34.511Z,973.42
2024-03-26T04:16:56.003Z,973.42
2024-03-26T04:17:27.310Z,973.42
2024-03-26T04:17:59.302Z,973.52
2024-03-26T04:18:33.772Z,973.52
2024-03-26T04:19:03.312Z,973.42
2024-03-26T04:19:35.279Z,973.42
2024-03-26T04:20:08.264Z,973.42
2024-03-26T04:20:35.032Z,973.31
2024-03-26T04:20:55.769Z,973.31
2024-03-26T04:21:27.351Z,973.31
2024-03-26T04:21:59.323Z,973.31
2024-03-26T04:22:31.396Z,973.31
2024-03-26T04:23:03.308Z,973.42
2024-03-26T04:23:35.331Z,973.42
2024-03-26T04:24:07.583Z,973.31
2024-03-26T04:24:34.504Z,973.31
2024-03-26T04:24:55.481Z,973.31
2024-03-26T04:25:27.564Z,973.31
2024-03-26T04:25:59.602Z,973.21
2024-03-26T04:26:32.171Z,973.21
2024-03-26T04:27:03.327Z,973.31
2024-03-26T04:27:35.324Z,973.31
2024-03-26T04:28:07.796Z,973.31
2024-03-26T04:28:34.495Z,973.21
2024-03-26T04:28:55.338Z,973.21
2024-03-26T04:29:27.275Z,973.21
2024-03-26T04:29:59.492Z,973.21
2024-03-26T04:30:32.224Z,973.21
2024-03-26T04:31:03.345Z,973.31
2024-03-26T04:31:35.797Z,973.31
2024-03-26T04:32:07.536Z,973.11
2024-03-26T04:32:34.774Z,973.11
2024-03-26T04:32:56.212Z,973.11
2024-03-26T04:33:27.270Z,973.11
2024-03-26T04:33:59.302Z,973.21
2024-03-26T04:34:31.455Z,973.21
2024-03-26T04:35:03.776Z,973.11
2024-03-26T04:35:35.499Z,973.11
2024-03-26T04:36:08.421Z,973.21
2024-03-26T04:36:34.806Z,973.11
2024-03-26T04:36:55.471Z,973.11
2024-03-26T04:37:27.321Z,973.11
2024-03-26T04:37:59.297Z,973.21
2024-03-26T04:38:31.311Z,973.21
2024-03-26T04:39:03.343Z,973.11
2024-03-26T04:39:35.515Z,973.11
2024-03-26T04:40:07.776Z,973.01
2024-03-26T04:40:34.478Z,973.21
2024-03-26T04:40:55.670Z,973.21
2024-03-26T04:41:27.337Z,973.21
2024-03-26T04:41:59.301Z,973.31
2024-03-26T04:42:33.169Z,973.31
2024-03-26T04:43:03.308Z,973.31
2024-03-26T04:43:35.314Z,973.31
2024-03-26T04:44:07.285Z,973.11
2024-03-26T04:44:34.472Z,973.31
2024-03-26T04:44:55.331Z,973.31
2024-03-26T04:45:28.008Z,973.31
2024-03-26T04:45:59.378Z,973.11
2024-03-26T04:46:31.331Z,973.11
2024-03-26T04:47:03.451Z,973.11
2024-03-26T04:47:35.325Z,973.11
2024-03-26T04:48:07.642Z,973.21
2024-03-26T04:48:35.121Z,973.21
2024-03-26T04:48:56.004Z,973.21
2024-03-26T04:49:27.285Z,973.21
2024-03-26T04:49:59.287Z,973.21
2024-03-26T04:50:31.566Z,973.21
2024-03-26T04:51:03.327Z,973.11
2024-03-26T04:51:35.304Z,973.11
2024-03-26T04:52:08.016Z,973.31
2024-03-26T04:52:34.473Z,973.52
2024-03-26T04:52:55.283Z,973.52
2024-03-26T04:53:27.301Z,973.52
2024-03-26T04:53:59.341Z,973.31
2024-03-26T04:54:31.538Z,973.31
2024-03-26T04:55:03.628Z,973.11
2024-03-26T04:55:35.324Z,973.11
2024-03-26T04:56:07.322Z,973.11
2024-03-26T04:56:34.487Z,973.21
2024-03-26T04:56:58.095Z,973.21
2024-03-26T04:57:27.295Z,973.21
2024-03-26T04:57:59.291Z,973.21
2024-03-26T04:58:32.014Z,973.21
2024-03-26T04:59:03.324Z,973.31
2024-03-26T04:59:35.315Z,973.31
2024-03-26T05:00:11.548Z,973.31
2024-03-26T05:00:34.503Z,973.42
2024-03-26T05:00:55.666Z,973.42
2024-03-26T05:01:27.367Z,973.42
2024-03-26T05:01:59.366Z,973.31
2024-03-26T05:02:30.903Z,973.31
2024-03-26T05:03:02.892Z,973.31
2024-03-26T05:03:37.359Z,973.31
2024-03-26T05:04:06.907Z,973.31
2024-03-26T05:04:34.098Z,973.42
2024-03-26T05:04:55.973Z,973.42
2024-03-26T05:05:27.261Z,973.42
2024-03-26T05:05:58.766Z,973.31
2024-03-26T05:06:32.112Z,973.31
2024-03-26T05:07:03.328Z,973.31
2024-03-26T05:07:35.627Z,973.31
2024-03-26T05:08:07.990Z,973.31
2024-03-26T05:08:35.488Z,973.21
2024-03-26T05:08:55.370Z,973.21
2024-03-26T05:09:27.327Z,973.21
2024-03-26T05:09:59.298Z,973.21
2024-03-26T05:10:31.663Z,973.21
2024-03-26T05:11:03.568Z,973.31
2024-03-26T05:11:35.575Z,973.31
2024-03-26T05:12:08.612Z,973.21
2024-03-26T05:12:34.535Z,973.31
2024-03-26T05:12:55.450Z,973.31
2024-03-26T05:13:27.297Z,973.31
2024-03-26T05:13:59.432Z,973.31
2024-03-26T05:14:31.961Z,973.31
2024-03-26T05:15:03.806Z,973.31
2024-03-26T05:15:35.518Z,973.31
2024-03-26T05:16:07.618Z,973.21
2024-03-26T05:16:34.665Z,973.01
2024-03-26T05:16:55.485Z,973.01
2024-03-26T05:17:27.439Z,973.01
2024-03-26T05:17:59.763Z,973.11
2024-03-26T05:18:31.896Z,973.11
2024-03-26T05:19:03.478Z,973.11
2024-03-26T05:19:35.531Z,973.11
2024-03-26T05:20:08.116Z,973.21
2024-03-26T05:20:34.647Z,973.11
2024-03-26T05:20:56.463Z,973.11
2024-03-26T05:21:27.432Z,973.11
2024-03-26T05:21:59.451Z,973.01
2024-03-26T05:22:31.454Z,973.01
2024-03-26T05:23:03.722Z,973.21
2024-03-26T05:23:35.454Z,973.21
2024-03-26T05:24:08.257Z,973.11
2024-03-26T05:24:35.445Z,973.01
2024-03-26T05:24:55.891Z,973.01
2024-03-26T05:25:27.810Z,973.01
2024-03-26T05:25:59.467Z,972.91
2024-03-26T05:26:31.535Z,972.91
2024-03-26T05:27:20.087Z,973.21
2024-03-26T05:27:41.112Z,973.11
2024-03-26T05:28:07.456Z,973.11
2024-03-26T05:28:34.775Z,972.91
2024-03-26T05:28:55.464Z,972.91
2024-03-26T05:29:27.508Z,972.91
2024-03-26T05:29:59.446Z,973.01
2024-03-26T05:30:41.810Z,973.01
2024-03-26T05:31:03.386Z,972.84
2024-03-26T05:31:35.478Z,972.84
2024-03-26T05:32:07.426Z,973.11
2024-03-26T05:32:34.682Z,973.01
2024-03-26T05:32:55.462Z,973.01
2024-03-26T05:33:27.393Z,973.01
2024-03-26T05:33:59.459Z,973.11
2024-03-26T05:34:31.446Z,973.11
2024-03-26T05:35:03.696Z,972.91
2024-03-26T05:35:35.459Z,972.91
2024-03-26T05:36:07.751Z,973.01
2024-03-26T05:36:34.603Z,973.01
2024-03-26T05:36:56.325Z,973.01
2024-03-26T05:37:27.438Z,973.01
2024-03-26T05:37:59.451Z,972.91
2024-03-26T05:38:31.441Z,972.91
2024-03-26T05:39:03.402Z,972.91
2024-03-26T05:39:35.619Z,972.91
2024-03-26T05:40:08.386Z,973.01
2024-03-26T05:40:34.711Z,972.91
2024-03-26T05:40:55.718Z,972.91
2024-03-26T05:41:27.437Z,972.91
2024-03-26T05:41:59.418Z,973.11
2024-03-26T05:42:31.767Z,973.11
2024-03-26T05:43:03.444Z,972.91
2024-03-26T05:43:35.570Z,972.91
2024-03-26T05:44:07.408Z,973.01
2024-03-26T05:44:35.294Z,973.01
2024-03-26T05:44:55.517Z,973.01
2024-03-26T05:45:28.009Z,973.01
2024-03-26T05:45:59.440Z,972.84
2024-03-26T05:46:32.111Z,972.84
2024-03-26T05:47:03.417Z,973.01
2024-03-26T05:47:35.625Z,973.01
2024-03-26T05:48:07.676Z,972.84
2024-03-26T05:48:34.617Z,972.84
2024-03-26T05:48:55.607Z,972.84
2024-03-26T05:49:27.471Z,972.84
2024-03-26T05:49:59.460Z,972.54
2024-03-26T05:50:31.884Z,972.54
2024-03-26T05:51:03.416Z,972.74
2024-03-26T05:51:35.508Z,972.74
2024-03-26T05:52:07.478Z,972.84
2024-03-26T05:52:34.602Z,972.91
2024-03-26T05:52:56.029Z,972.91
2024-03-26T05:53:27.443Z,972.91
2024-03-26T05:53:59.422Z,972.74
2024-03-26T05:54:31.682Z,972.74
2024-03-26T05:55:03.677Z,972.91
2024-03-26T05:55:35.510Z,972.91
2024-03-26T05:56:09.334Z,973.01
2024-03-26T05:56:34.670Z,972.84
2024-03-26T05:56:55.534Z,972.84
2024-03-26T05:57:27.423Z,972.84
2024-03-26T05:57:59.432Z,972.84
2024-03-26T05:58:31.538Z,972.84
2024-03-26T05:59:03.489Z,972.84
2024-03-26T05:59:35.821Z,972.84
2024-03-26T06:00:15.577Z,972.91
2024-03-26T06:00:34.690Z,972.84
2024-03-26T06:00:56.068Z,972.84
2024-03-26T06:01:27.493Z,972.84
2024-03-26T06:01:59.456Z,972.84
2024-03-26T06:02:32.174Z,972.84
2024-03-26T06:03:03.430Z,972.74
2024-03-26T06:03:35.471Z,972.74
2024-03-26T06:04:07.374Z,972.91
2024-03-26T06:04:34.572Z,972.91
2024-03-26T06:04:55.469Z,972.91
2024-03-26T06:05:27.735Z,972.91
2024-03-26T06:05:59.472Z,972.84
2024-03-26T06:06:31.897Z,972.84
2024-03-26T06:07:03.463Z,972.91
2024-03-26T06:07:35.565Z,972.91
2024-03-26T06:08:07.456Z,972.84
2024-03-26T06:08:34.579Z,973.01
2024-03-26T06:08:56.080Z,973.01
2024-03-26T06:09:27.382Z,973.01
2024-03-26T06:09:59.726Z,972.64
2024-03-26T06:10:31.895Z,972.64
2024-03-26T06:11:03.651Z,972.91
2024-03-26T06:11:35.488Z,972.91
2024-03-26T06:12:08.571Z,973.01
2024-03-26T06:12:34.702Z,973.01
2024-03-26T06:12:55.622Z,973.01
2024-03-26T06:13:27.468Z,973.01
2024-03-26T06:13:59.431Z,973.01